createdAt,value
2019-05-30T00:02:07.028Z,94.70
2019-05-30T00:04:36.236Z,94.80
2019-05-30T00:07:05.353Z,94.80
2019-05-30T00:09:34.352Z,94.80
2019-05-30T00:12:03.340Z,94.90
2019-05-30T00:14:32.382Z,95.00
2019-05-30T00:17:01.415Z,95.00
2019-05-30T00:19:33.693Z,95.00
2019-05-30T00:22:01.426Z,94.90
2019-05-30T00:24:30.477Z,95.00
2019-05-30T00:27:00.272Z,94.90
2019-05-30T00:29:29.387Z,95.00
2019-05-30T00:31:59.379Z,95.10
2019-05-30T00:34:28.425Z,95.10
2019-05-30T00:36:57.712Z,95.10
2019-05-30T00:39:26.791Z,95.10
2019-05-30T00:41:56.057Z,95.00
2019-05-30T00:44:25.262Z,95.10
2019-05-30T00:46:54.325Z,95.20
2019-05-30T00:49:23.486Z,95.30
2019-05-30T00:51:52.526Z,95.70
2019-05-30T00:54:21.520Z,95.40
2019-05-30T00:56:50.507Z,95.50
2019-05-30T00:59:19.590Z,95.40
2019-05-30T01:01:48.584Z,95.70
2019-05-30T01:04:17.698Z,95.80
2019-05-30T01:06:46.782Z,96.10
2019-05-30T01:09:16.869Z,96.20
2019-05-30T01:11:45.952Z,96.40
2019-05-30T01:14:15.032Z,96.60
2019-05-30T01:16:44.117Z,96.70
2019-05-30T01:19:13.183Z,96.80
2019-05-30T01:21:42.260Z,96.90
2019-05-30T01:24:11.418Z,96.90
2019-05-30T01:26:40.505Z,96.80
2019-05-30T01:29:09.547Z,97.10
2019-05-30T01:31:38.526Z,97.20
2019-05-30T01:34:07.964Z,97.30
2019-05-30T01:36:37.115Z,97.40
2019-05-30T01:39:08.172Z,97.40
2019-05-30T01:41:37.363Z,97.50
2019-05-30T01:44:06.396Z,97.60
2019-05-30T01:46:35.451Z,97.70
2019-05-30T01:49:04.497Z,97.80
2019-05-30T01:51:33.550Z,98.20
2019-05-30T01:54:02.631Z,98.00
2019-05-30T01:56:31.655Z,98.00
2019-05-30T01:59:00.797Z,98.10
2019-05-30T02:01:29.851Z,98.00
2019-05-30T02:03:59.168Z,98.20
2019-05-30T02:06:28.180Z,98.20
2019-05-30T02:08:57.207Z,98.20
2019-05-30T02:11:26.262Z,98.30
2019-05-30T02:14:14.448Z,98.40
2019-05-30T02:16:43.557Z,98.40
2019-05-30T02:19:12.594Z,98.30
2019-05-30T02:21:41.583Z,98.60
2019-05-30T02:24:12.303Z,98.70
2019-05-30T02:26:41.524Z,98.70
2019-05-30T02:29:10.548Z,98.80
2019-05-30T02:31:40.015Z,98.70
2019-05-30T02:34:10.153Z,98.70
2019-05-30T02:36:39.897Z,98.80
2019-05-30T02:39:09.847Z,98.90
2019-05-30T02:41:39.757Z,98.90
2019-05-30T02:44:10.247Z,98.90
2019-05-30T02:46:39.491Z,98.90
2019-05-30T02:49:11.096Z,99.00
2019-05-30T02:51:39.306Z,99.00
2019-05-30T02:54:09.304Z,99.00
2019-05-30T02:56:39.076Z,99.10
2019-05-30T02:59:09.170Z,99.10
2019-05-30T03:01:59.270Z,99.10
2019-05-30T03:04:12.679Z,99.20
2019-05-30T03:06:41.401Z,99.30
2019-05-30T03:09:11.476Z,99.30
2019-05-30T03:12:01.899Z,99.30
2019-05-30T03:14:31.219Z,99.30
2019-05-30T03:17:02.331Z,99.40
2019-05-30T03:19:30.955Z,99.40
2019-05-30T03:22:03.453Z,99.40
2019-05-30T03:24:31.821Z,99.40
2019-05-30T03:27:02.456Z,99.50
2019-05-30T03:29:31.622Z,99.50
2019-05-30T03:32:33.954Z,99.50
2019-05-30T03:34:31.368Z,99.50
2019-05-30T03:37:00.364Z,99.50
2019-05-30T03:39:29.417Z,99.50
2019-05-30T03:41:58.455Z,99.90
2019-05-30T03:44:27.536Z,99.60
2019-05-30T03:46:57.959Z,99.90
2019-05-30T03:49:29.242Z,99.60
2019-05-30T03:51:58.678Z,99.60
2019-05-30T03:54:27.771Z,99.60
2019-05-30T03:57:02.462Z,99.70
2019-05-30T03:59:32.896Z,99.70
2019-05-30T04:02:58.152Z,99.70
2019-05-30T04:05:30.859Z,99.80
2019-05-30T04:07:59.922Z,99.80
2019-05-30T04:10:31.327Z,99.80
2019-05-30T04:13:25.610Z,99.90
2019-05-30T04:15:54.740Z,99.90
2019-05-30T04:18:23.765Z,99.90
2019-05-30T04:20:52.753Z,99.90
2019-05-30T04:23:21.790Z,99.90
2019-05-30T04:25:50.846Z,99.90
2019-05-30T04:28:19.913Z,99.90
2019-05-30T04:30:48.960Z,99.90
2019-05-30T04:33:31.678Z,99.90
2019-05-30T04:35:48.742Z,99.90
2019-05-30T04:38:19.468Z,99.90
2019-05-30T04:40:48.519Z,99.90
2019-05-30T04:43:18.013Z,99.90
2019-05-30T04:45:48.637Z,99.90
2019-05-30T04:48:18.631Z,99.90
2019-05-30T04:50:48.190Z,99.90
2019-05-30T04:53:18.458Z,99.90
2019-05-30T04:55:47.605Z,99.90
2019-05-30T04:58:18.037Z,99.90
2019-05-30T05:00:47.586Z,99.90
2019-05-30T05:03:23.244Z,99.90
2019-05-30T05:05:47.454Z,99.90
2019-05-30T05:08:17.766Z,99.90
2019-05-30T05:10:47.058Z,99.90
2019-05-30T05:13:18.324Z,99.90
2019-05-30T05:15:47.532Z,99.90
2019-05-30T05:18:16.912Z,99.90
2019-05-30T05:20:46.106Z,99.90
2019-05-30T05:23:15.174Z,99.90
2019-05-30T05:25:57.757Z,99.90
2019-05-30T05:28:15.763Z,99.90
2019-05-30T05:30:44.873Z,99.90
2019-05-30T05:33:16.541Z,99.90
2019-05-30T05:35:45.804Z,99.90
2019-05-30T05:38:16.398Z,99.90
2019-05-30T05:40:45.516Z,99.90
2019-05-30T05:43:14.676Z,99.90
2019-05-30T05:45:43.800Z,99.90
2019-05-30T05:48:12.867Z,99.90
2019-05-30T05:50:41.918Z,99.90
2019-05-30T05:53:10.974Z,99.90
2019-05-30T05:55:40.010Z,99.90
2019-05-30T05:58:09.028Z,99.90
2019-05-30T06:00:38.200Z,99.90
2019-05-30T06:03:07.201Z,99.90
2019-05-30T06:05:36.202Z,99.90
2019-05-30T06:08:05.400Z,99.90
2019-05-30T06:10:34.422Z,99.90
2019-05-30T06:13:03.467Z,99.90
2019-05-30T06:15:32.534Z,99.90
2019-05-30T06:18:01.610Z,99.90
2019-05-30T06:20:32.269Z,99.90
2019-05-30T06:23:01.331Z,99.90
2019-05-30T06:25:32.723Z,99.90
2019-05-30T06:28:01.050Z,99.90
2019-05-30T06:30:30.070Z,99.90
2019-05-30T06:32:59.146Z,99.90
2019-05-30T06:35:29.519Z,99.90
2019-05-30T06:37:58.612Z,99.90
2019-05-30T06:40:30.900Z,99.90
2019-05-30T06:42:58.514Z,99.90
2019-05-30T06:45:28.380Z,99.90
2019-05-30T06:47:57.680Z,99.90
2019-05-30T06:50:26.906Z,99.90
2019-05-30T06:52:56.096Z,99.90
2019-05-30T06:55:25.299Z,99.90
2019-05-30T06:57:54.303Z,99.90
2019-05-30T07:00:23.753Z,99.90
2019-05-30T07:02:53.185Z,99.90
2019-05-30T07:05:23.420Z,99.90
2019-05-30T07:07:55.026Z,99.90
2019-05-30T07:10:24.859Z,99.90
2019-05-30T07:12:55.614Z,99.90
2019-05-30T07:15:25.094Z,99.90
2019-05-30T07:17:54.310Z,99.90
2019-05-30T07:20:23.559Z,99.90
2019-05-30T07:22:52.599Z,99.90
2019-05-30T07:25:21.638Z,99.90
2019-05-30T07:27:50.788Z,99.90
2019-05-30T07:30:19.914Z,99.90
2019-05-30T07:32:49.071Z,99.90
2019-05-30T07:35:18.113Z,99.90
2019-05-30T07:37:47.114Z,99.90
2019-05-30T07:40:19.374Z,99.90
2019-05-30T07:42:46.860Z,99.90
2019-05-30T07:45:15.979Z,99.90
2019-05-30T07:47:44.922Z,99.90
2019-05-30T07:50:13.979Z,99.90
2019-05-30T07:52:43.049Z,99.90
2019-05-30T07:55:31.336Z,99.90
2019-05-30T07:58:00.384Z,99.90
2019-05-30T08:00:29.455Z,99.90
2019-05-30T08:02:58.501Z,99.90
2019-05-30T08:05:28.579Z,99.90
2019-05-30T08:07:57.669Z,99.90
2019-05-30T08:10:27.730Z,99.90
2019-05-30T08:12:56.895Z,99.90
2019-05-30T08:15:27.176Z,99.90
2019-05-30T08:17:56.306Z,99.90
2019-05-30T08:20:25.429Z,99.90
2019-05-30T08:22:54.478Z,99.90
2019-05-30T08:25:23.567Z,99.90
2019-05-30T08:27:52.713Z,99.90
2019-05-30T08:30:21.766Z,99.90
2019-05-30T08:32:50.786Z,99.90
2019-05-30T08:35:19.780Z,99.90
2019-05-30T08:37:52.520Z,99.90
2019-05-30T08:40:22.114Z,99.90
2019-05-30T08:42:51.274Z,99.90
2019-05-30T08:45:20.758Z,99.90
2019-05-30T08:47:49.843Z,99.90
2019-05-30T08:50:18.862Z,99.90
2019-05-30T08:52:47.921Z,99.90
2019-05-30T08:55:19.362Z,99.80
2019-05-30T08:57:48.122Z,99.90
2019-05-30T09:00:17.234Z,99.80
2019-05-30T09:02:46.923Z,99.70
2019-05-30T09:05:16.115Z,99.70
2019-05-30T09:07:46.256Z,99.70
2019-05-30T09:10:15.419Z,99.70
2019-05-30T09:12:48.769Z,99.60
2019-05-30T09:15:15.222Z,99.60
2019-05-30T09:17:44.866Z,99.60
2019-05-30T09:20:15.090Z,99.50
2019-05-30T09:22:45.368Z,99.50
2019-05-30T09:25:17.101Z,99.40
2019-05-30T09:27:46.721Z,99.40
2019-05-30T09:30:15.893Z,99.40
2019-05-30T09:32:45.275Z,99.30
2019-05-30T09:35:14.571Z,99.20
2019-05-30T09:37:44.139Z,99.00
2019-05-30T09:40:20.359Z,99.00
2019-05-30T09:42:50.371Z,99.00
2019-05-30T09:45:19.799Z,98.90
2019-05-30T09:47:49.332Z,98.90
2019-05-30T09:50:18.896Z,98.80
2019-05-30T09:52:49.161Z,98.70
2019-05-30T09:55:18.440Z,98.60
2019-05-30T09:57:47.658Z,98.50
2019-05-30T10:00:16.970Z,98.40
2019-05-30T10:02:46.720Z,98.40
2019-05-30T10:05:15.968Z,98.40
2019-05-30T10:07:45.576Z,98.30
2019-05-30T10:10:15.703Z,98.20
2019-05-30T10:12:45.534Z,98.10
2019-05-30T10:15:19.592Z,98.10
2019-05-30T10:17:51.809Z,98.10
2019-05-30T10:20:20.085Z,98.00
2019-05-30T10:22:50.822Z,97.90
2019-05-30T10:25:21.290Z,97.90
2019-05-30T10:27:51.157Z,97.90
2019-05-30T10:30:21.055Z,97.90
2019-05-30T10:32:50.677Z,97.80
2019-05-30T10:35:20.982Z,97.70
2019-05-30T10:37:50.935Z,97.70
2019-05-30T10:40:22.250Z,97.60
2019-05-30T10:42:53.156Z,97.60
2019-05-30T10:45:22.169Z,97.50
2019-05-30T10:47:51.434Z,97.50
2019-05-30T10:50:20.457Z,97.40
2019-05-30T10:52:49.567Z,97.30
2019-05-30T10:55:18.615Z,97.30
2019-05-30T10:57:48.646Z,97.20
2019-05-30T11:00:18.444Z,97.20
2019-05-30T11:02:49.256Z,97.20
2019-05-30T11:05:18.347Z,97.20
2019-05-30T11:08:01.961Z,97.20
2019-05-30T11:10:35.895Z,97.50
2019-05-30T11:13:06.060Z,97.10
2019-05-30T11:15:35.187Z,97.10
2019-05-30T11:18:04.278Z,97.10
2019-05-30T11:20:33.359Z,97.00
2019-05-30T11:23:02.383Z,97.00
2019-05-30T11:25:31.790Z,97.00
2019-05-30T11:28:00.859Z,96.70
2019-05-30T11:30:29.880Z,96.70
2019-05-30T11:32:59.445Z,96.80
2019-05-30T11:35:28.671Z,96.60
2019-05-30T11:37:57.738Z,96.60
2019-05-30T11:40:26.769Z,96.60
2019-05-30T11:42:55.798Z,96.60
2019-05-30T11:45:24.826Z,96.50
2019-05-30T11:47:53.949Z,96.60
2019-05-30T11:50:24.661Z,96.50
2019-05-30T11:52:53.839Z,96.40
2019-05-30T11:55:22.831Z,96.30
2019-05-30T11:57:52.104Z,96.30
2019-05-30T12:00:21.210Z,96.20
2019-05-30T12:02:50.291Z,96.20
2019-05-30T12:05:20.011Z,96.10
2019-05-30T12:07:49.006Z,96.00
2019-05-30T12:10:18.197Z,96.00
2019-05-30T12:12:47.278Z,95.90
2019-05-30T12:15:17.519Z,95.70
2019-05-30T12:17:46.541Z,95.60
2019-05-30T12:20:15.548Z,95.50
2019-05-30T12:22:44.691Z,95.30
2019-05-30T12:25:13.772Z,95.30
2019-05-30T12:27:42.881Z,95.20
2019-05-30T12:30:11.904Z,95.10
2019-05-30T12:32:40.923Z,95.00
2019-05-30T12:35:10.170Z,94.90
2019-05-30T12:37:53.273Z,94.70
2019-05-30T12:40:10.142Z,94.60
2019-05-30T12:42:39.154Z,94.50
2019-05-30T12:45:08.298Z,94.60
2019-05-30T12:47:37.337Z,94.30
2019-05-30T12:50:07.107Z,94.20
2019-05-30T12:52:36.127Z,94.10
2019-05-30T12:55:06.880Z,94.00
2019-05-30T12:57:36.066Z,93.80
2019-05-30T13:00:13.653Z,93.40
2019-05-30T13:02:36.642Z,93.60
2019-05-30T13:05:05.690Z,93.50
2019-05-30T13:07:34.779Z,93.30
2019-05-30T13:10:03.936Z,93.40
2019-05-30T13:12:33.036Z,93.30
2019-05-30T13:15:02.077Z,93.30
2019-05-30T13:17:31.156Z,93.20
2019-05-30T13:20:01.437Z,93.10
2019-05-30T13:22:30.670Z,92.90
2019-05-30T13:24:59.774Z,92.60
2019-05-30T13:27:28.848Z,92.30
2019-05-30T13:29:58.031Z,92.10
2019-05-30T13:32:27.063Z,91.90
2019-05-30T13:34:56.810Z,92.20
2019-05-30T13:37:25.961Z,92.20
2019-05-30T13:39:54.942Z,92.20
2019-05-30T13:42:23.952Z,92.00
2019-05-30T13:44:52.978Z,91.90
2019-05-30T13:47:21.991Z,91.90
2019-05-30T13:49:51.122Z,91.80
2019-05-30T13:52:20.125Z,91.90
2019-05-30T13:54:49.171Z,91.30
2019-05-30T13:57:18.250Z,91.40
2019-05-30T13:59:47.310Z,91.70
2019-05-30T14:02:16.410Z,91.60
2019-05-30T14:04:45.468Z,91.60
2019-05-30T14:07:14.520Z,91.50
2019-05-30T14:09:43.535Z,91.40
2019-05-30T14:12:12.585Z,90.90
2019-05-30T14:14:41.752Z,91.00
2019-05-30T14:17:12.428Z,91.00
2019-05-30T14:19:44.246Z,91.10
2019-05-30T14:22:13.266Z,90.60
2019-05-30T14:24:42.329Z,90.80
2019-05-30T14:27:11.817Z,90.60
2019-05-30T14:29:43.909Z,90.70
2019-05-30T14:32:12.952Z,90.60
2019-05-30T14:34:42.042Z,90.60
2019-05-30T14:37:11.127Z,90.30
2019-05-30T14:39:40.129Z,90.50
2019-05-30T14:42:09.236Z,90.40
2019-05-30T14:44:38.327Z,90.30
2019-05-30T14:47:08.362Z,90.40
2019-05-30T14:49:37.385Z,89.80
2019-05-30T14:52:06.726Z,90.20
2019-05-30T14:54:35.878Z,90.20
2019-05-30T14:57:05.030Z,90.00
2019-05-30T14:59:34.075Z,90.20
2019-05-30T15:02:03.113Z,90.50
2019-05-30T15:04:32.167Z,90.50
2019-05-30T15:07:01.234Z,90.50
2019-05-30T15:09:30.255Z,89.60
2019-05-30T15:11:59.231Z,90.20
2019-05-30T15:14:28.344Z,90.20
2019-05-30T15:16:57.392Z,90.00
2019-05-30T15:19:26.459Z,89.80
2019-05-30T15:21:55.498Z,90.00
2019-05-30T15:24:24.603Z,90.30
2019-05-30T15:26:53.683Z,90.30
2019-05-30T15:29:22.751Z,90.10
2019-05-30T15:31:51.816Z,90.10
2019-05-30T15:34:20.826Z,89.60
2019-05-30T15:36:49.878Z,88.90
2019-05-30T15:39:31.118Z,89.30
2019-05-30T15:41:49.664Z,89.20
2019-05-30T15:44:18.739Z,88.50
2019-05-30T15:46:47.762Z,88.30
2019-05-30T15:49:16.755Z,88.70
2019-05-30T15:51:45.818Z,88.90
2019-05-30T15:54:15.037Z,88.30
2019-05-30T15:56:44.131Z,88.00
2019-05-30T15:59:13.686Z,88.20
2019-05-30T16:01:42.702Z,88.00
2019-05-30T16:04:12.048Z,87.70
2019-05-30T16:06:42.335Z,88.60
2019-05-30T16:09:12.372Z,88.40
2019-05-30T16:11:41.727Z,88.90
2019-05-30T16:14:11.127Z,89.40
2019-05-30T16:16:40.697Z,88.80
2019-05-30T16:19:18.372Z,88.90
2019-05-30T16:21:40.574Z,88.80
2019-05-30T16:24:09.625Z,88.90
2019-05-30T16:26:38.691Z,88.80
2019-05-30T16:29:07.754Z,88.60
2019-05-30T16:31:36.826Z,88.80
2019-05-30T16:34:05.828Z,88.40
2019-05-30T16:36:34.839Z,89.00
2019-05-30T16:39:04.061Z,88.80
2019-05-30T16:41:33.024Z,88.90
2019-05-30T16:44:02.279Z,89.20
2019-05-30T16:46:31.398Z,89.40
2019-05-30T16:49:00.443Z,89.70
2019-05-30T16:51:29.504Z,89.90
2019-05-30T16:53:58.545Z,90.00
2019-05-30T16:56:27.569Z,90.00
2019-05-30T16:58:56.620Z,90.10
2019-05-30T17:01:26.017Z,90.10
2019-05-30T17:03:55.131Z,90.10
2019-05-30T17:06:24.172Z,90.00
2019-05-30T17:08:53.228Z,90.10
2019-05-30T17:11:23.446Z,90.20
2019-05-30T17:13:52.618Z,90.30
2019-05-30T17:16:22.101Z,90.40
2019-05-30T17:18:51.122Z,90.50
2019-05-30T17:21:21.115Z,90.40
2019-05-30T17:23:50.201Z,90.50
2019-05-30T17:26:19.207Z,90.50
2019-05-30T17:28:48.331Z,90.60
2019-05-30T17:31:17.649Z,90.60
2019-05-30T17:33:46.751Z,90.60
2019-05-30T17:36:15.778Z,90.80
2019-05-30T17:38:44.926Z,90.90
2019-05-30T17:41:14.021Z,90.90
2019-05-30T17:43:43.104Z,90.90
2019-05-30T17:46:12.539Z,91.00
2019-05-30T17:48:44.639Z,91.00
2019-05-30T17:51:13.700Z,91.40
2019-05-30T17:53:42.759Z,91.20
2019-05-30T17:56:11.802Z,91.30
2019-05-30T17:58:40.862Z,91.20
2019-05-30T18:01:09.993Z,91.20
2019-05-30T18:03:39.058Z,91.20
2019-05-30T18:06:08.105Z,91.60
2019-05-30T18:08:37.186Z,91.30
2019-05-30T18:11:06.218Z,91.30
2019-05-30T18:13:35.207Z,91.40
2019-05-30T18:16:04.342Z,91.50
2019-05-30T18:18:33.386Z,91.50
2019-05-30T18:21:02.445Z,91.60
2019-05-30T18:23:31.843Z,91.60
2019-05-30T18:26:00.969Z,91.70
2019-05-30T18:28:30.015Z,91.60
2019-05-30T18:30:59.035Z,91.80
2019-05-30T18:33:28.381Z,91.80
2019-05-30T18:35:57.524Z,91.80
2019-05-30T18:38:26.610Z,91.80
2019-05-30T18:41:10.257Z,91.80
2019-05-30T18:43:26.787Z,91.80
2019-05-30T18:45:55.944Z,92.20
2019-05-30T18:48:25.272Z,91.80
2019-05-30T18:50:54.455Z,91.90
2019-05-30T18:53:24.224Z,92.00
2019-05-30T18:55:53.326Z,92.00
2019-05-30T18:58:22.305Z,92.00
2019-05-30T19:00:51.421Z,92.00
2019-05-30T19:03:20.498Z,92.20
2019-05-30T19:05:49.554Z,92.10
2019-05-30T19:08:18.571Z,92.20
2019-05-30T19:10:47.628Z,92.30
2019-05-30T19:13:16.798Z,92.20
2019-05-30T19:15:45.820Z,92.30
2019-05-30T19:18:14.858Z,92.40
2019-05-30T19:20:43.938Z,92.40
2019-05-30T19:23:12.997Z,92.50
2019-05-30T19:25:42.320Z,92.80
2019-05-30T19:28:11.359Z,92.60
2019-05-30T19:30:41.209Z,92.60
2019-05-30T19:33:10.315Z,92.60
2019-05-30T19:35:39.292Z,92.70
2019-05-30T19:38:08.408Z,92.70
2019-05-30T19:40:38.048Z,92.70
2019-05-30T19:43:07.410Z,92.80
2019-05-30T19:45:36.664Z,92.80
2019-05-30T19:48:05.699Z,92.80
2019-05-30T19:50:34.742Z,92.90
2019-05-30T19:53:03.791Z,92.90
2019-05-30T19:55:33.236Z,92.90
2019-05-30T19:58:02.317Z,93.00
2019-05-30T20:00:31.993Z,92.90
2019-05-30T20:03:01.146Z,93.00
2019-05-30T20:05:30.512Z,93.10
2019-05-30T20:07:59.500Z,93.10
2019-05-30T20:10:28.477Z,93.10
2019-05-30T20:12:57.490Z,93.10
2019-05-30T20:15:26.530Z,93.20
2019-05-30T20:17:55.629Z,93.20
2019-05-30T20:20:24.689Z,93.20
2019-05-30T20:22:53.763Z,93.30
2019-05-30T20:25:22.735Z,93.30
2019-05-30T20:27:51.874Z,93.30
2019-05-30T20:30:20.921Z,93.30
2019-05-30T20:32:49.966Z,93.30
2019-05-30T20:35:19.044Z,93.30
2019-05-30T20:37:48.095Z,93.30
2019-05-30T20:40:36.896Z,93.40
2019-05-30T20:43:06.181Z,93.40
2019-05-30T20:45:39.573Z,93.50
2019-05-30T20:48:17.575Z,93.50
2019-05-30T20:50:47.406Z,93.40
2019-05-30T20:53:16.460Z,93.60
2019-05-30T20:55:46.773Z,93.60
2019-05-30T20:58:15.932Z,93.60
2019-05-30T21:00:45.831Z,93.60
2019-05-30T21:03:14.929Z,93.50
2019-05-30T21:05:44.156Z,93.50
2019-05-30T21:08:13.843Z,93.60
2019-05-30T21:10:43.286Z,93.60
2019-05-30T21:13:12.263Z,93.60
2019-05-30T21:15:41.767Z,93.70
2019-05-30T21:18:17.927Z,93.70
2019-05-30T21:20:46.896Z,93.80
2019-05-30T21:23:16.117Z,93.80
2019-05-30T21:25:45.246Z,93.80
2019-05-30T21:28:14.281Z,93.80
2019-05-30T21:30:43.383Z,93.80
2019-05-30T21:33:12.377Z,93.80
2019-05-30T21:35:41.795Z,93.90
2019-05-30T21:38:11.007Z,93.90
2019-05-30T21:40:40.398Z,93.90
2019-05-30T21:43:09.554Z,93.90
2019-05-30T21:45:38.572Z,94.00
2019-05-30T21:48:07.591Z,94.00
2019-05-30T21:50:36.682Z,94.00
2019-05-30T21:53:05.725Z,94.00
2019-05-30T21:55:34.812Z,94.00
2019-05-30T21:58:03.815Z,94.00
2019-05-30T22:01:09.216Z,94.10
2019-05-30T22:03:38.260Z,94.10
2019-05-30T22:06:07.311Z,94.40
2019-05-30T22:08:36.331Z,94.30
2019-05-30T22:11:05.352Z,94.30
2019-05-30T22:13:34.404Z,94.30
2019-05-30T22:16:03.449Z,94.30
2019-05-30T22:18:32.523Z,94.40
2019-05-30T22:21:01.598Z,94.40
2019-05-30T22:23:30.665Z,94.40
2019-05-30T22:25:59.691Z,94.40
2019-05-30T22:28:28.737Z,94.40
2019-05-30T22:30:57.821Z,94.30
2019-05-30T22:33:26.887Z,94.40
2019-05-30T22:35:55.885Z,94.50
2019-05-30T22:38:24.926Z,94.50
2019-05-30T22:40:54.365Z,94.50
2019-05-30T22:43:25.515Z,94.60
2019-05-30T22:45:54.254Z,94.60
2019-05-30T22:48:23.298Z,94.50
2019-05-30T22:50:54.702Z,94.60
2019-05-30T22:53:23.708Z,94.60
2019-05-30T22:55:53.633Z,94.70
2019-05-30T22:58:22.664Z,94.60
2019-05-30T23:00:52.078Z,94.70
2019-05-30T23:03:21.248Z,94.70
2019-05-30T23:05:51.500Z,94.80
2019-05-30T23:08:20.681Z,94.90
2019-05-30T23:10:49.724Z,94.90
2019-05-30T23:13:18.686Z,94.90
2019-05-30T23:15:48.156Z,95.00
2019-05-30T23:18:17.274Z,94.90
2019-05-30T23:20:46.651Z,95.00
2019-05-30T23:23:15.757Z,95.00
2019-05-30T23:25:44.797Z,95.00
2019-05-30T23:28:13.968Z,95.00
2019-05-30T23:30:42.975Z,95.00
2019-05-30T23:33:12.082Z,95.10
2019-05-30T23:35:41.123Z,95.10
2019-05-30T23:38:10.152Z,95.10
2019-05-30T23:40:39.158Z,95.20
2019-05-30T23:43:08.097Z,95.20
2019-05-30T23:45:37.089Z,95.30
2019-05-30T23:48:06.079Z,95.30
2019-05-30T23:50:35.101Z,95.40
2019-05-30T23:53:04.145Z,95.30
2019-05-30T23:55:33.198Z,95.40
2019-05-30T23:58:02.262Z,95.40
